Time;durP1;ratioP1;P1;durP2;ratioP2;P2;SDS_P1;SDS_P2;PMS_P1;PMS_P2;Temp;Humidity;BMP_temperature;BMP_pressure;BME280_temperature;BME280_humidity;BME280_pressure;Samples;Min_cycle;Max_cycle;Signal;HPM_P1;HPM_P2
2023/06/15 00:01:41;;;;;;;;;;;24.40;46.80;;;;;;10290487;28;94580;-62
2023/06/15 00:06:43;;;;;;;;;;;24.40;46.80;;;;;;10289203;28;94554;-62
2023/06/15 00:11:45;;;;;;;;;;;24.40;46.80;;;;;;10271261;28;93790;-62
2023/06/15 00:16:47;;;;;;;;;;;24.40;46.80;;;;;;10288834;28;93665;-62
2023/06/15 00:21:53;;;;;;;;;;;24.40;46.80;;;;;;10289248;28;94669;-62
2023/06/15 00:26:55;;;;;;;;;;;24.40;46.80;;;;;;10288508;28;94493;-62
2023/06/15 00:31:57;;;;;;;;;;;24.40;46.80;;;;;;10290034;28;93742;-62
2023/06/15 00:36:59;;;;;;;;;;;24.40;46.80;;;;;;10288526;28;93673;-62
2023/06/15 00:42:01;;;;;;;;;;;24.40;46.80;;;;;;10287771;28;94554;-62
2023/06/15 00:47:03;;;;;;;;;;;24.40;46.80;;;;;;10268767;28;96831;-62
2023/06/15 00:52:05;;;;;;;;;;;24.40;46.70;;;;;;10286966;28;93456;-62
2023/06/15 00:57:08;;;;;;;;;;;24.40;46.60;;;;;;10269822;28;94611;-62
2023/06/15 01:02:12;;;;;;;;;;;24.40;46.60;;;;;;10287820;28;94570;-62
2023/06/15 01:07:16;;;;;;;;;;;24.40;46.50;;;;;;10287000;28;93519;-62
2023/06/15 01:12:18;;;;;;;;;;;24.40;46.50;;;;;;10287370;28;94623;-63
2023/06/15 01:17:23;;;;;;;;;;;24.40;46.40;;;;;;10270093;28;92567;-62
2023/06/15 01:22:29;;;;;;;;;;;24.40;46.40;;;;;;10293884;28;94049;-62
2023/06/15 01:27:33;;;;;;;;;;;24.40;46.40;;;;;;10294656;28;94408;-62
2023/06/15 01:32:35;;;;;;;;;;;24.40;46.40;;;;;;10293837;28;94054;-62
2023/06/15 01:37:37;;;;;;;;;;;24.40;46.50;;;;;;10291978;28;96147;-62
2023/06/15 01:42:39;;;;;;;;;;;24.40;46.40;;;;;;10294142;28;94511;-62
2023/06/15 01:47:42;;;;;;;;;;;24.40;46.40;;;;;;10275575;28;93564;-62
2023/06/15 01:52:44;;;;;;;;;;;24.40;46.40;;;;;;10292971;28;94007;-63
2023/06/15 01:57:46;;;;;;;;;;;24.30;46.40;;;;;;10293250;28;93682;-62
2023/06/15 02:02:48;;;;;;;;;;;24.30;46.40;;;;;;10292715;28;93565;-62
2023/06/15 02:07:50;;;;;;;;;;;24.30;46.50;;;;;;10275644;28;93691;-62
2023/06/15 02:12:51;;;;;;;;;;;24.30;46.50;;;;;;10293536;28;92432;-62
2023/06/15 02:18:01;;;;;;;;;;;24.20;46.50;;;;;;10293463;28;93531;-61
2023/06/15 02:23:03;;;;;;;;;;;24.30;46.50;;;;;;10293266;28;93338;-61
2023/06/15 02:28:05;;;;;;;;;;;24.30;46.60;;;;;;10289721;28;96893;-62
2023/06/15 02:33:07;;;;;;;;;;;24.30;46.60;;;;;;10291693;28;93683;-62
2023/06/15 02:38:10;;;;;;;;;;;24.20;46.60;;;;;;10291759;28;93505;-62
2023/06/15 02:43:11;;;;;;;;;;;24.20;46.60;;;;;;10291743;28;94641;-62
2023/06/15 02:48:14;;;;;;;;;;;24.20;46.70;;;;;;10291043;28;93723;-62
2023/06/15 02:53:15;;;;;;;;;;;24.20;46.60;;;;;;10291610;28;94544;-63
2023/06/15 02:58:20;;;;;;;;;;;24.20;46.70;;;;;;10290517;28;94053;-62
2023/06/15 03:03:27;;;;;;;;;;;24.20;46.70;;;;;;10292417;28;92750;-62
2023/06/15 03:08:31;;;;;;;;;;;24.20;46.60;;;;;;10289844;28;93588;-62
2023/06/15 03:13:33;;;;;;;;;;;24.20;46.60;;;;;;10272953;28;93470;-62
2023/06/15 03:18:35;;;;;;;;;;;24.20;46.60;;;;;;10287978;28;96050;-62
2023/06/15 03:23:38;;;;;;;;;;;24.20;46.60;;;;;;10290459;28;94495;-62
2023/06/15 03:28:39;;;;;;;;;;;24.20;46.60;;;;;;10290652;28;94670;-62
2023/06/15 03:33:41;;;;;;;;;;;24.20;46.60;;;;;;10289716;28;93562;-62
2023/06/15 03:38:43;;;;;;;;;;;24.20;46.60;;;;;;10290697;28;93468;-63
2023/06/15 03:43:45;;;;;;;;;;;24.20;46.60;;;;;;10288516;28;94234;-62
2023/06/15 04:21:37;;;;;;;;;;;24.20;46.60;;;;;;10279694;28;92671;-62
2023/06/15 04:26:41;;;;;;;;;;;24.20;46.70;;;;;;10288466;28;94574;-62
2023/06/15 04:31:44;;;;;;;;;;;24.20;46.80;;;;;;10289044;28;94444;-62
2023/06/15 04:36:48;;;;;;;;;;;24.10;46.80;;;;;;10270698;28;93910;-62
2023/06/15 04:41:50;;;;;;;;;;;24.10;46.90;;;;;;10287046;28;93751;-62
2023/06/15 04:52:06;;;;;;;;;;;24.10;47.00;;;;;;10176464;28;92085;-67
2023/06/15 04:57:09;;;;;;;;;;;24.10;47.10;;;;;;10164882;28;94550;-67
2023/06/15 05:02:11;;;;;;;;;;;24.10;47.10;;;;;;10166436;28;93672;-68
2023/06/15 05:07:12;;;;;;;;;;;24.10;47.10;;;;;;10166695;28;96420;-67
2023/06/15 05:12:14;;;;;;;;;;;24.10;47.20;;;;;;10204981;28;93613;-66
2023/06/15 05:17:16;;;;;;;;;;;24.10;47.40;;;;;;10205292;28;93350;-68
2023/06/15 05:22:18;;;;;;;;;;;24.10;47.40;;;;;;10204411;28;92837;-66
2023/06/15 05:27:19;;;;;;;;;;;24.10;47.50;;;;;;10206246;28;92556;-67
2023/06/15 05:32:21;;;;;;;;;;;24.00;47.50;;;;;;10206180;28;94453;-66
2023/06/15 05:37:23;;;;;;;;;;;24.10;47.70;;;;;;10206007;28;93413;-67
2023/06/15 05:42:28;;;;;;;;;;;24.10;47.70;;;;;;10207263;28;93701;-68
2023/06/15 05:47:30;;;;;;;;;;;24.10;47.70;;;;;;10204645;28;93612;-68
2023/06/15 05:52:32;;;;;;;;;;;24.20;47.80;;;;;;10204889;28;93630;-68
2023/06/15 05:57:34;;;;;;;;;;;24.10;47.90;;;;;;10202386;28;95933;-68
2023/06/15 06:02:35;;;;;;;;;;;23.90;48.20;;;;;;10205812;28;94591;-67
2023/06/15 06:07:37;;;;;;;;;;;23.70;49.70;;;;;;10209029;28;93242;-67
2023/06/15 06:12:39;;;;;;;;;;;23.70;49.40;;;;;;10211218;28;94482;-68
2023/06/15 06:17:41;;;;;;;;;;;23.70;48.80;;;;;;10211580;28;93677;-67
2023/06/15 06:23:05;;;;;;;;;;;23.60;49.10;;;;;;10210946;28;93607;-66
2023/06/15 06:28:07;;;;;;;;;;;23.60;49.10;;;;;;10209721;28;93546;-67
2023/06/15 06:33:09;;;;;;;;;;;23.70;49.50;;;;;;10211065;28;92899;-67
2023/06/15 06:38:11;;;;;;;;;;;23.80;49.30;;;;;;10210127;28;93767;-67
2023/06/15 06:43:13;;;;;;;;;;;23.90;49.00;;;;;;10209620;28;94631;-67
2023/06/15 06:48:15;;;;;;;;;;;24.00;48.70;;;;;;10205609;28;96926;-67
2023/06/15 06:53:17;;;;;;;;;;;24.10;48.50;;;;;;10210264;28;93431;-67
2023/06/15 06:58:18;;;;;;;;;;;24.20;48.10;;;;;;10208689;28;94468;-66
2023/06/15 07:03:21;;;;;;;;;;;24.20;47.90;;;;;;10209820;28;93607;-67
2023/06/15 07:08:23;;;;;;;;;;;24.30;47.80;;;;;;10209586;28;93324;-67
2023/06/15 07:13:25;;;;;;;;;;;24.40;47.70;;;;;;10209890;28;94030;-67
2023/06/15 07:18:27;;;;;;;;;;;24.50;47.60;;;;;;10208150;28;93506;-66
2023/06/15 07:23:29;;;;;;;;;;;24.50;47.50;;;;;;10207985;28;93907;-66
2023/06/15 07:28:50;;;;;;;;;;;24.60;47.40;;;;;;10209100;28;93072;-67
2023/06/15 07:33:54;;;;;;;;;;;24.60;47.40;;;;;;10209101;28;94946;-67
2023/06/15 07:38:56;;;;;;;;;;;24.60;47.40;;;;;;10220602;28;96067;-66
2023/06/15 07:43:57;;;;;;;;;;;24.60;47.30;;;;;;10209225;28;93704;-67
2023/06/15 07:48:59;;;;;;;;;;;24.60;47.40;;;;;;10206282;28;94559;-66
2023/06/15 07:54:01;;;;;;;;;;;24.50;47.40;;;;;;10208098;28;93669;-67
2023/06/15 07:59:03;;;;;;;;;;;24.50;47.50;;;;;;10208168;28;94411;-67
2023/06/15 08:04:05;;;;;;;;;;;24.50;47.40;;;;;;10207924;28;92819;-67
2023/06/15 08:09:07;;;;;;;;;;;24.50;47.30;;;;;;10207131;28;93502;-66
2023/06/15 08:14:09;;;;;;;;;;;24.60;47.30;;;;;;10208307;28;93735;-67
2023/06/15 08:19:10;;;;;;;;;;;24.60;47.40;;;;;;10208093;28;94067;-66
2023/06/15 08:24:12;;;;;;;;;;;24.60;47.30;;;;;;10207673;28;93883;-66
2023/06/15 08:29:15;;;;;;;;;;;24.50;47.30;;;;;;10205289;28;95826;-66
2023/06/15 08:34:24;;;;;;;;;;;24.50;47.30;;;;;;10205846;28;93453;-67
2023/06/15 08:39:26;;;;;;;;;;;24.50;48.40;;;;;;10207473;28;94446;-67
2023/06/15 08:44:29;;;;;;;;;;;24.50;47.30;;;;;;10221995;28;94042;-67
2023/06/15 08:49:31;;;;;;;;;;;24.60;47.30;;;;;;10206732;28;94120;-66
2023/06/15 08:54:35;;;;;;;;;;;24.60;47.30;;;;;;10204883;28;93726;-67
2023/06/15 08:59:37;;;;;;;;;;;24.60;47.30;;;;;;10206602;28;93419;-66
2023/06/15 09:04:39;;;;;;;;;;;24.60;47.30;;;;;;10206017;28;93883;-66
2023/06/15 09:10:01;;;;;;;;;;;24.60;47.40;;;;;;10206686;28;93339;-67
2023/06/15 09:15:03;;;;;;;;;;;24.60;47.40;;;;;;10205633;28;93954;-66
2023/06/15 09:20:05;;;;;;;;;;;24.60;47.50;;;;;;10202863;28;95680;-67
2023/06/15 09:25:10;;;;;;;;;;;24.50;47.40;;;;;;10204450;28;94673;-66
2023/06/15 09:30:17;;;;;;;;;;;24.50;47.50;;;;;;10205228;28;94224;-66
2023/06/15 09:35:19;;;;;;;;;;;24.50;47.30;;;;;;10206752;28;93343;-66
2023/06/15 09:40:23;;;;;;;;;;;24.50;47.50;;;;;;10205925;28;93478;-67
2023/06/15 09:45:25;;;;;;;;;;;24.50;47.50;;;;;;10211731;28;93815;-66
2023/06/15 09:50:28;;;;;;;;;;;24.50;47.40;;;;;;10211764;28;94139;-67
2023/06/15 09:55:30;;;;;;;;;;;24.50;47.30;;;;;;10212108;28;92261;-67
2023/06/15 10:00:32;;;;;;;;;;;24.50;47.40;;;;;;10212247;28;93114;-67
2023/06/15 10:05:35;;;;;;;;;;;24.60;47.20;;;;;;10211260;28;93566;-67
2023/06/15 10:10:38;;;;;;;;;;;24.60;47.20;;;;;;10209177;28;96953;-67
2023/06/15 10:15:41;;;;;;;;;;;24.70;47.20;;;;;;10210900;28;94942;-67
2023/06/15 10:20:43;;;;;;;;;;;24.80;46.90;;;;;;10211616;28;93442;-67
2023/06/15 10:25:45;;;;;;;;;;;24.80;46.80;;;;;;10211403;28;93517;-67
2023/06/15 10:31:04;;;;;;;;;;;24.90;46.60;;;;;;10211292;28;94162;-67
2023/06/15 10:36:18;;;;;;;;;;;24.90;46.60;;;;;;10210276;28;94593;-67
2023/06/15 10:41:20;;;;;;;;;;;25.00;46.50;;;;;;10211001;28;93529;-67
2023/06/15 10:46:25;;;;;;;;;;;25.00;46.40;;;;;;10211551;28;92726;-68
2023/06/15 10:51:29;;;;;;;;;;;25.00;46.40;;;;;;10210551;28;93677;-67
2023/06/15 10:56:30;;;;;;;;;;;25.00;46.40;;;;;;10212021;28;94426;-67
2023/06/15 11:01:32;;;;;;;;;;;25.00;46.30;;;;;;10208441;28;95903;-66
2023/06/15 11:06:36;;;;;;;;;;;25.00;46.30;;;;;;10210612;28;93632;-67
2023/06/15 11:11:39;;;;;;;;;;;25.00;46.40;;;;;;10209935;28;93450;-67
2023/06/15 11:16:40;;;;;;;;;;;25.00;46.30;;;;;;10210054;28;94417;-65
2023/06/15 11:21:50;;;;;;;;;;;25.00;46.40;;;;;;10210456;28;94062;-67
2023/06/15 11:26:54;;;;;;;;;;;25.00;46.40;;;;;;10210690;28;93588;-67
2023/06/15 11:31:55;;;;;;;;;;;24.90;46.30;;;;;;10209369;28;93595;-67
2023/06/15 11:36:58;;;;;;;;;;;25.00;46.30;;;;;;10210403;28;92820;-67
2023/06/15 11:42:00;;;;;;;;;;;24.90;46.20;;;;;;10208733;28;94486;-67
2023/06/15 11:47:02;;;;;;;;;;;25.00;46.20;;;;;;10209283;28;94467;-67
2023/06/15 11:52:05;;;;;;;;;;;25.00;46.20;;;;;;10206225;28;96311;-67
2023/06/15 11:57:06;;;;;;;;;;;24.90;46.20;;;;;;10208324;28;94714;-67
2023/06/15 12:02:08;;;;;;;;;;;24.90;46.20;;;;;;10208795;28;92599;-67
2023/06/15 12:07:10;;;;;;;;;;;24.90;46.20;;;;;;10207188;28;93679;-67
2023/06/15 12:12:29;;;;;;;;;;;24.90;46.20;;;;;;10206941;28;94855;-67
2023/06/15 12:17:32;;;;;;;;;;;24.90;46.20;;;;;;10206947;28;94511;-67
2023/06/15 12:22:34;;;;;;;;;;;24.90;46.20;;;;;;10208646;28;93413;-67
2023/06/15 12:27:42;;;;;;;;;;;24.90;46.20;;;;;;10209090;28;93723;-67
2023/06/15 12:32:45;;;;;;;;;;;24.90;46.20;;;;;;10207648;28;94927;-67
2023/06/15 12:37:48;;;;;;;;;;;24.90;46.00;;;;;;10207237;28;93912;-67
2023/06/15 12:43:01;;;;;;;;;;;24.90;46.00;;;;;;10218855;28;95945;-67
2023/06/15 12:48:04;;;;;;;;;;;25.00;46.10;;;;;;10206867;28;93800;-67
2023/06/15 12:53:06;;;;;;;;;;;25.00;46.00;;;;;;10207466;28;95520;-67
2023/06/15 12:58:08;;;;;;;;;;;25.00;46.00;;;;;;10205152;28;93212;-67
2023/06/15 13:03:10;;;;;;;;;;;25.00;46.20;;;;;;10204990;28;93498;-67
2023/06/15 13:08:14;;;;;;;;;;;25.00;46.00;;;;;;10205645;28;94030;-67
2023/06/15 13:13:16;;;;;;;;;;;25.00;46.10;;;;;;10205333;28;93928;-67
2023/06/15 13:18:18;;;;;;;;;;;25.00;46.00;;;;;;10211909;28;94527;-67
2023/06/15 13:23:20;;;;;;;;;;;25.00;46.00;;;;;;10213246;28;93924;-67
2023/06/15 13:28:21;;;;;;;;;;;25.00;47.00;;;;;;10213154;28;94625;-66
2023/06/15 13:33:24;;;;;;;;;;;25.00;46.00;;;;;;10210852;28;95797;-66
2023/06/15 13:38:26;;;;;;;;;;;25.00;45.90;;;;;;10211987;28;93677;-67
2023/06/15 13:43:30;;;;;;;;;;;25.00;45.90;;;;;;10212310;28;94925;-67
2023/06/15 13:48:31;;;;;;;;;;;25.00;46.00;;;;;;10209665;28;93437;-66
2023/06/15 13:53:33;;;;;;;;;;;25.00;46.00;;;;;;10212585;28;94103;-66
2023/06/15 13:58:35;;;;;;;;;;;25.00;46.00;;;;;;10211727;28;92502;-67
2023/06/15 14:03:39;;;;;;;;;;;25.00;46.10;;;;;;10210865;28;92916;-67
2023/06/15 14:08:41;;;;;;;;;;;25.00;46.20;;;;;;10213166;28;93792;-67
2023/06/15 14:13:50;;;;;;;;;;;25.00;46.20;;;;;;10211469;28;93777;-66
2023/06/15 14:18:52;;;;;;;;;;;24.90;46.20;;;;;;10211745;28;94249;-67
2023/06/15 14:23:57;;;;;;;;;;;24.90;46.10;;;;;;10207763;28;97107;-67
2023/06/15 14:28:59;;;;;;;;;;;24.90;46.30;;;;;;10209987;28;94429;-67
2023/06/15 14:34:01;;;;;;;;;;;24.90;46.20;;;;;;10210874;28;93697;-67
2023/06/15 14:39:02;;;;;;;;;;;24.90;46.20;;;;;;10210767;28;93631;-67
2023/06/15 14:44:08;;;;;;;;;;;24.90;46.10;;;;;;10210686;28;93447;-67
2023/06/15 14:49:10;;;;;;;;;;;24.90;46.10;;;;;;10211108;28;94615;-67
2023/06/15 14:54:12;;;;;;;;;;;24.90;46.10;;;;;;10209992;28;94899;-67
2023/06/15 14:59:14;;;;;;;;;;;24.90;46.20;;;;;;10210094;28;91976;-67
2023/06/15 15:04:15;;;;;;;;;;;24.90;46.20;;;;;;10209997;28;93552;-67
2023/06/15 15:09:17;;;;;;;;;;;24.90;46.10;;;;;;10210904;28;93737;-67
2023/06/15 15:14:19;;;;;;;;;;;24.90;45.90;;;;;;10206035;28;95989;-67
2023/06/15 15:19:21;;;;;;;;;;;25.00;46.00;;;;;;10209114;28;93728;-67
2023/06/15 15:24:23;;;;;;;;;;;24.90;45.70;;;;;;10209081;28;93324;-66
2023/06/15 15:29:25;;;;;;;;;;;24.90;45.80;;;;;;10208806;28;92541;-68
2023/06/15 15:34:27;;;;;;;;;;;25.00;45.90;;;;;;10206996;28;93773;-68
2023/06/15 15:39:29;;;;;;;;;;;25.00;45.90;;;;;;10208710;28;93483;-68
2023/06/15 15:44:31;;;;;;;;;;;25.00;47.00;;;;;;10208438;28;93810;-68
2023/06/15 15:49:33;;;;;;;;;;;25.00;46.00;;;;;;10183984;28;93558;-68
2023/06/15 15:54:34;;;;;;;;;;;25.00;46.10;;;;;;10168333;28;93725;-70
2023/06/15 15:59:36;;;;;;;;;;;25.00;46.80;;;;;;10168442;28;94525;-70
2023/06/15 16:04:39;;;;;;;;;;;25.00;46.30;;;;;;10165222;28;97208;-66
2023/06/15 16:09:41;;;;;;;;;;;25.00;47.30;;;;;;10167696;28;94476;-68
2023/06/15 16:14:43;;;;;;;;;;;25.20;50.30;;;;;;10166970;28;93614;-63
2023/06/15 16:19:44;;;;;;;;;;;25.30;52.20;;;;;;10162596;28;94726;-62
2023/06/15 16:24:47;;;;;;;;;;;25.50;45.80;;;;;;10163414;28;93511;-63
2023/06/15 16:29:48;;;;;;;;;;;25.40;39.40;;;;;;10164244;28;93647;-62
2023/06/15 16:34:50;;;;;;;;;;;25.10;40.90;;;;;;10164042;28;93225;-62
2023/06/15 16:39:54;;;;;;;;;;;25.10;41.60;;;;;;10164957;28;92842;-61
2023/06/15 16:45:00;;;;;;;;;;;25.00;40.60;;;;;;10162637;28;94264;-61
2023/06/15 16:50:02;;;;;;;;;;;25.00;41.30;;;;;;10184269;28;94441;-61
2023/06/15 16:55:04;;;;;;;;;;;25.00;41.50;;;;;;10198616;28;96785;-62
2023/06/15 17:00:06;;;;;;;;;;;25.00;41.20;;;;;;10201712;28;94648;-62
2023/06/15 17:05:08;;;;;;;;;;;24.90;40.60;;;;;;10201439;28;94735;-63
2023/06/15 17:10:10;;;;;;;;;;;24.80;40.90;;;;;;10204678;28;95192;-63
2023/06/15 17:15:11;;;;;;;;;;;24.80;41.40;;;;;;10201175;28;93464;-63
2023/06/15 17:20:13;;;;;;;;;;;24.80;41.60;;;;;;10201316;28;93602;-63
2023/06/15 17:25:15;;;;;;;;;;;24.80;41.40;;;;;;10201627;28;94526;-62
2023/06/15 17:30:18;;;;;;;;;;;24.80;41.70;;;;;;10204139;28;92834;-63
2023/06/15 17:35:20;;;;;;;;;;;24.80;41.90;;;;;;10204195;28;94507;-63
2023/06/15 17:40:24;;;;;;;;;;;24.80;42.10;;;;;;10203561;28;94541;-65
2023/06/15 17:45:26;;;;;;;;;;;24.80;42.50;;;;;;10216073;28;96132;-63
2023/06/15 17:50:28;;;;;;;;;;;24.80;42.70;;;;;;10202295;28;94615;-63
2023/06/15 17:55:30;;;;;;;;;;;24.90;42.70;;;;;;10203381;28;94488;-61
2023/06/15 18:00:32;;;;;;;;;;;25.00;42.10;;;;;;10201821;28;94544;-61
2023/06/15 18:05:33;;;;;;;;;;;25.00;41.90;;;;;;10196061;28;94114;-62
2023/06/15 18:10:35;;;;;;;;;;;25.00;42.20;;;;;;10209064;28;93495;-63
2023/06/15 18:15:39;;;;;;;;;;;25.10;42.20;;;;;;10210610;28;93664;-62
2023/06/15 18:20:40;;;;;;;;;;;25.10;41.60;;;;;;10212119;28;92230;-63
2023/06/15 18:25:42;;;;;;;;;;;25.10;41.60;;;;;;10198478;28;94436;-64
2023/06/15 18:30:44;;;;;;;;;;;25.10;41.50;;;;;;10166751;28;94785;-66
2023/06/15 18:35:46;;;;;;;;;;;25.10;41.80;;;;;;10163952;28;96462;-66
2023/06/15 18:40:47;;;;;;;;;;;25.10;41.70;;;;;;10165312;28;94452;-66
2023/06/15 18:45:49;;;;;;;;;;;25.00;41.90;;;;;;10164688;28;94430;-61
2023/06/15 18:50:51;;;;;;;;;;;25.00;42.00;;;;;;10165581;28;93522;-62
2023/06/15 18:55:55;;;;;;;;;;;24.90;42.40;;;;;;10166557;28;93513;-62
2023/06/15 19:00:57;;;;;;;;;;;24.90;42.70;;;;;;10169022;28;94239;-67
2023/06/15 19:05:59;;;;;;;;;;;24.80;42.90;;;;;;10168066;28;94456;-67
2023/06/15 19:11:01;;;;;;;;;;;24.80;43.30;;;;;;10168558;28;94278;-66
2023/06/15 19:16:04;;;;;;;;;;;24.80;43.50;;;;;;10166154;28;93078;-66
2023/06/15 19:21:06;;;;;;;;;;;24.80;43.70;;;;;;10167630;28;94485;-64
2023/06/15 19:26:14;;;;;;;;;;;24.70;43.60;;;;;;10164514;28;95682;-64
2023/06/15 19:31:16;;;;;;;;;;;24.70;43.40;;;;;;10168391;28;94557;-64
2023/06/15 19:36:18;;;;;;;;;;;24.70;43.30;;;;;;10167746;28;93693;-64
2023/06/15 19:41:19;;;;;;;;;;;24.60;43.30;;;;;;10167289;28;93567;-63
2023/06/15 19:46:21;;;;;;;;;;;24.60;43.10;;;;;;10167055;28;93651;-63
2023/06/15 19:51:23;;;;;;;;;;;24.60;43.30;;;;;;10165948;28;93792;-63
2023/06/15 19:56:27;;;;;;;;;;;24.60;43.30;;;;;;10166225;28;113991;-65
2023/06/15 20:01:30;;;;;;;;;;;24.60;43.50;;;;;;10167229;28;92989;-65
2023/06/15 20:06:31;;;;;;;;;;;24.60;43.50;;;;;;10163861;28;93520;-64
2023/06/15 20:11:33;;;;;;;;;;;24.60;43.50;;;;;;10165961;28;93689;-64
2023/06/15 20:16:35;;;;;;;;;;;24.60;43.50;;;;;;10163186;28;96842;-64
2023/06/15 20:21:37;;;;;;;;;;;24.70;43.60;;;;;;10166586;28;93770;-63
2023/06/15 20:26:40;;;;;;;;;;;24.70;43.70;;;;;;10165240;28;94044;-64
2023/06/15 20:31:42;;;;;;;;;;;24.70;43.70;;;;;;10166145;28;93427;-64
2023/06/15 20:36:45;;;;;;;;;;;24.70;43.80;;;;;;10165490;28;94633;-64
2023/06/15 20:41:47;;;;;;;;;;;24.70;43.80;;;;;;10164282;28;93595;-65
2023/06/15 20:46:49;;;;;;;;;;;24.70;43.80;;;;;;10165127;28;93530;-64
2023/06/15 20:51:51;;;;;;;;;;;24.80;44.00;;;;;;10166051;28;94057;-64
2023/06/15 20:56:53;;;;;;;;;;;24.80;44.10;;;;;;10163705;28;95806;-64
2023/06/15 21:01:55;;;;;;;;;;;24.80;44.20;;;;;;10164456;28;93716;-64
2023/06/15 21:06:57;;;;;;;;;;;24.80;44.30;;;;;;10163516;28;96090;-62
2023/06/15 21:11:58;;;;;;;;;;;24.80;44.40;;;;;;10164974;28;93392;-63
2023/06/15 21:17:00;;;;;;;;;;;24.80;44.40;;;;;;10162912;28;93574;-64
2023/06/15 21:22:03;;;;;;;;;;;24.80;44.50;;;;;;10165508;28;93622;-65
2023/06/15 21:27:05;;;;;;;;;;;24.80;44.50;;;;;;10164658;28;93810;-65
2023/06/15 21:32:07;;;;;;;;;;;24.80;44.40;;;;;;10164395;28;94455;-64
2023/06/15 21:37:09;;;;;;;;;;;24.80;44.50;;;;;;10165962;28;93556;-64
2023/06/15 21:42:11;;;;;;;;;;;24.70;44.40;;;;;;10171933;28;93113;-65
2023/06/15 21:47:13;;;;;;;;;;;24.70;44.50;;;;;;10171818;28;94685;-65
2023/06/15 21:52:16;;;;;;;;;;;24.70;44.50;;;;;;10170825;28;93046;-65
2023/06/15 21:57:17;;;;;;;;;;;24.70;44.70;;;;;;10169284;28;96186;-64
2023/06/15 22:02:19;;;;;;;;;;;24.70;44.70;;;;;;10171540;28;94914;-64
2023/06/15 22:07:21;;;;;;;;;;;24.70;44.80;;;;;;10170727;28;94537;-64
2023/06/15 22:12:23;;;;;;;;;;;24.70;44.80;;;;;;10170613;28;93624;-64
2023/06/15 22:17:25;;;;;;;;;;;24.70;44.90;;;;;;10170896;28;94543;-64
2023/06/15 22:22:27;;;;;;;;;;;24.70;44.90;;;;;;10169015;28;93314;-64
2023/06/15 22:27:29;;;;;;;;;;;24.70;44.90;;;;;;10170570;28;93087;-64
2023/06/15 22:32:31;;;;;;;;;;;24.70;44.90;;;;;;10169851;28;93284;-65
2023/06/15 22:37:33;;;;;;;;;;;24.70;44.90;;;;;;10169847;28;93934;-64
2023/06/15 22:42:34;;;;;;;;;;;24.70;44.90;;;;;;10170399;28;93537;-63
2023/06/15 22:47:38;;;;;;;;;;;24.70;44.80;;;;;;10166285;28;95937;-64
2023/06/15 22:52:41;;;;;;;;;;;24.70;44.80;;;;;;10168998;28;94274;-64
2023/06/15 22:57:43;;;;;;;;;;;24.70;44.80;;;;;;10167818;28;94375;-64
2023/06/15 23:02:45;;;;;;;;;;;24.70;44.80;;;;;;10170131;28;93436;-65
2023/06/15 23:07:48;;;;;;;;;;;24.70;44.90;;;;;;10169068;28;94376;-65
2023/06/15 23:12:50;;;;;;;;;;;24.70;44.90;;;;;;10169428;28;93783;-64
2023/06/15 23:17:53;;;;;;;;;;;24.70;44.90;;;;;;10170456;28;92757;-64
2023/06/15 23:22:58;;;;;;;;;;;24.70;44.90;;;;;;10168484;28;94058;-65
2023/06/15 23:28:00;;;;;;;;;;;24.70;44.90;;;;;;10168941;28;93737;-64
2023/06/15 23:33:04;;;;;;;;;;;24.70;44.90;;;;;;10168484;28;94485;-64
2023/06/15 23:38:06;;;;;;;;;;;24.70;44.90;;;;;;10165274;28;96848;-65
2023/06/15 23:43:08;;;;;;;;;;;24.70;44.90;;;;;;10167201;28;94655;-65
2023/06/15 23:48:10;;;;;;;;;;;24.70;44.90;;;;;;10167151;28;93557;-64
2023/06/15 23:53:12;;;;;;;;;;;24.70;44.90;;;;;;10168189;28;94385;-64
2023/06/15 23:58:14;;;;;;;;;;;24.70;44.90;;;;;;10168155;28;93616;-64
